createdAt,value
2019-03-04T00:01:07.818Z,18.10
2019-03-04T00:03:36.978Z,16.90
2019-03-04T00:06:06.628Z,13.07
2019-03-04T00:08:38.510Z,17.53
2019-03-04T00:11:08.258Z,15.90
2019-03-04T00:13:37.320Z,15.47
2019-03-04T00:16:06.800Z,18.87
2019-03-04T00:18:35.971Z,17.23
2019-03-04T00:21:05.371Z,17.87
2019-03-04T00:23:34.434Z,15.67
2019-03-04T00:26:03.508Z,16.30
2019-03-04T00:28:32.756Z,15.67
2019-03-04T00:31:02.452Z,12.57
2019-03-04T00:33:31.771Z,15.57
2019-03-04T00:36:00.719Z,14.87
2019-03-04T00:38:29.885Z,14.20
2019-03-04T00:40:59.026Z,15.50
2019-03-04T00:43:28.108Z,17.10
2019-03-04T00:45:57.650Z,15.17
2019-03-04T00:48:26.570Z,17.10
2019-03-04T00:50:55.797Z,12.40
2019-03-04T00:53:24.715Z,15.80
2019-03-04T00:55:53.991Z,11.20
2019-03-04T00:58:23.102Z,13.67
2019-03-04T01:00:52.370Z,15.53
2019-03-04T01:03:21.606Z,16.43
2019-03-04T01:17:26.831Z,14.20
2019-03-04T01:19:55.634Z,11.63
2019-03-04T01:22:24.491Z,14.00
2019-03-04T01:24:53.341Z,14.80
2019-03-04T01:27:22.171Z,12.93
2019-03-04T01:29:51.011Z,13.60
2019-03-04T01:32:19.834Z,12.50
2019-03-04T01:34:48.881Z,14.77
2019-03-04T01:37:17.826Z,12.73
2019-03-04T01:39:47.896Z,12.60
2019-03-04T01:42:18.522Z,12.77
2019-03-04T01:44:47.325Z,14.77
2019-03-04T01:47:16.178Z,12.13
2019-03-04T01:49:45.066Z,14.40
2019-03-04T01:52:13.956Z,12.67
2019-03-04T01:54:43.261Z,14.47
2019-03-04T01:57:12.590Z,12.63
2019-03-04T01:59:41.442Z,12.53
2019-03-04T02:02:10.259Z,11.17
2019-03-04T02:04:39.096Z,13.33
2019-03-04T02:07:08.033Z,13.50
2019-03-04T02:09:37.125Z,12.43
2019-03-04T02:12:06.192Z,12.57
2019-03-04T02:14:35.036Z,14.70
2019-03-04T02:20:56.882Z,10.77
2019-03-04T02:23:25.819Z,12.23
2019-03-04T02:26:24.142Z,9.70
2019-03-04T02:28:53.486Z,11.47
2019-03-04T02:31:22.690Z,12.17
2019-03-04T02:33:51.597Z,11.27
2019-03-04T02:36:20.600Z,10.40
2019-03-04T02:38:49.512Z,10.47
2019-03-04T02:41:18.370Z,10.67
2019-03-04T02:43:47.355Z,10.23
2019-03-04T02:46:16.360Z,10.07
2019-03-04T02:48:45.444Z,9.23
2019-03-04T02:51:14.392Z,8.63
2019-03-04T02:53:43.531Z,10.30
2019-03-04T02:56:13.152Z,8.23
2019-03-04T02:58:42.056Z,11.30
2019-03-04T03:01:11.111Z,10.57
2019-03-04T03:03:40.320Z,9.50
2019-03-04T03:06:09.611Z,9.97
2019-03-04T03:08:38.612Z,10.73
2019-03-04T03:11:07.590Z,7.00
2019-03-04T03:13:36.503Z,11.47
2019-03-04T03:16:05.520Z,10.27
2019-03-04T03:18:34.622Z,9.17
2019-03-04T03:21:03.524Z,9.57
2019-03-04T03:23:32.494Z,10.27
2019-03-04T03:26:01.448Z,7.10
2019-03-04T03:28:30.265Z,9.00
2019-03-04T03:30:59.176Z,9.23
2019-03-04T03:33:31.073Z,7.97
2019-03-04T03:35:59.905Z,9.60
2019-03-04T03:38:28.923Z,7.83
2019-03-04T03:40:57.782Z,9.97
2019-03-04T03:43:26.579Z,7.77
2019-03-04T03:45:56.727Z,7.83
2019-03-04T03:48:25.925Z,8.57
2019-03-04T03:50:54.913Z,11.30
2019-03-04T03:53:23.861Z,5.00
2019-03-04T03:55:52.862Z,5.33
2019-03-04T03:58:24.847Z,5.47
2019-03-04T04:00:52.429Z,8.57
2019-03-04T04:03:21.662Z,8.67
2019-03-04T04:05:50.858Z,7.27
2019-03-04T04:08:19.706Z,8.03
2019-03-04T04:10:48.740Z,5.83
2019-03-04T04:13:17.659Z,5.63
2019-03-04T04:15:47.130Z,6.53
2019-03-04T04:18:16.117Z,6.80
2019-03-04T04:20:45.063Z,7.10
2019-03-04T04:23:13.926Z,6.20
2019-03-04T04:25:42.772Z,7.40
2019-03-04T04:28:12.532Z,7.47
2019-03-04T04:30:41.356Z,6.43
2019-03-04T04:33:10.317Z,6.30
2019-03-04T04:35:39.180Z,7.80
2019-03-04T04:38:08.016Z,6.33
2019-03-04T04:40:36.924Z,6.03
2019-03-04T04:43:05.898Z,7.13
2019-03-04T04:45:34.914Z,5.20
2019-03-04T04:48:04.118Z,7.27
2019-03-04T04:50:33.071Z,5.63
2019-03-04T04:53:02.156Z,6.80
2019-03-04T04:55:31.395Z,5.37
2019-03-04T04:58:00.340Z,5.43
2019-03-04T05:00:31.191Z,6.03
2019-03-04T05:03:00.047Z,7.60
2019-03-04T05:05:29.008Z,6.17
2019-03-04T05:07:57.884Z,5.77
2019-03-04T05:10:27.000Z,6.77
2019-03-04T05:12:55.934Z,6.80
2019-03-04T05:15:24.781Z,4.40
2019-03-04T05:17:53.945Z,3.87
2019-03-04T05:20:23.263Z,5.90
2019-03-04T05:22:52.251Z,6.50
2019-03-04T05:25:22.447Z,6.07
2019-03-04T05:27:51.341Z,5.00
2019-03-04T05:30:20.310Z,5.73
2019-03-04T05:32:49.306Z,4.83
2019-03-04T05:35:18.421Z,5.87
2019-03-04T05:37:49.363Z,5.10
2019-03-04T05:40:18.472Z,5.70
2019-03-04T05:42:47.342Z,6.57
2019-03-04T05:45:16.702Z,4.23
2019-03-04T05:47:45.712Z,5.53
2019-03-04T05:50:15.591Z,3.83
2019-03-04T05:52:44.492Z,5.03
2019-03-04T05:55:14.159Z,4.37
2019-03-04T05:57:44.318Z,3.90
2019-03-04T06:00:15.837Z,4.23
2019-03-04T06:02:44.956Z,4.50
2019-03-04T06:05:15.745Z,5.57
2019-03-04T06:07:50.927Z,3.83
2019-03-04T06:10:21.289Z,2.83
2019-03-04T06:12:50.243Z,6.77
2019-03-04T06:15:20.397Z,6.27
2019-03-04T06:17:49.471Z,3.30
2019-03-04T06:20:18.929Z,4.33
2019-03-04T06:22:47.998Z,5.40
2019-03-04T06:25:27.889Z,4.70
2019-03-04T06:27:57.681Z,3.83
2019-03-04T06:30:28.159Z,3.87
2019-03-04T06:32:57.093Z,5.07
2019-03-04T06:35:26.006Z,3.80
2019-03-04T06:37:54.828Z,3.97
2019-03-04T06:40:24.690Z,4.17
2019-03-04T06:42:53.770Z,3.87
2019-03-04T06:45:22.737Z,3.93
2019-03-04T06:47:51.859Z,4.63
2019-03-04T06:50:49.052Z,5.57
2019-03-04T06:53:25.761Z,4.17
2019-03-04T06:56:07.220Z,4.57
2019-03-04T06:58:36.992Z,4.70
2019-03-04T07:01:12.428Z,5.33
2019-03-04T07:04:15.269Z,6.73
2019-03-04T07:06:44.085Z,4.27
2019-03-04T07:09:18.650Z,4.43
2019-03-04T07:11:51.853Z,3.90
2019-03-04T07:14:20.769Z,5.67
2019-03-04T07:17:05.858Z,5.47
2019-03-04T07:22:59.551Z,7.37
2019-03-04T07:25:29.773Z,4.73
2019-03-04T07:27:59.773Z,5.93
2019-03-04T07:30:39.888Z,6.80
2019-03-04T07:36:49.085Z,7.53
2019-03-04T07:39:19.387Z,3.87
2019-03-04T07:42:04.784Z,5.70
2019-03-04T07:44:34.910Z,5.13
2019-03-04T07:47:05.126Z,5.73
2019-03-04T07:49:33.903Z,5.20
2019-03-04T07:52:03.139Z,3.30
2019-03-04T07:54:32.368Z,4.43
2019-03-04T07:57:01.410Z,4.20
2019-03-04T07:59:30.508Z,6.03
2019-03-04T08:01:59.638Z,3.80
2019-03-04T08:04:38.454Z,3.27
2019-03-04T10:06:41.636Z,2.97
2019-03-04T10:09:28.226Z,1.03
2019-03-04T10:12:05.949Z,2.47
2019-03-04T10:15:08.979Z,1.57
2019-03-04T10:17:49.334Z,2.83
2019-03-04T10:20:53.793Z,2.20
2019-03-04T10:23:52.817Z,1.37
2019-03-04T10:27:21.414Z,1.37
2019-03-04T10:30:06.412Z,3.40
2019-03-04T10:33:30.615Z,2.30
2019-03-04T10:36:41.164Z,2.33
2019-03-04T10:39:46.026Z,2.63
2019-03-04T10:42:39.363Z,1.50
2019-03-04T10:45:49.414Z,2.50
2019-03-04T10:48:19.416Z,4.43
2019-03-04T10:50:48.457Z,4.13
2019-03-04T10:53:19.786Z,2.30
2019-03-04T10:55:50.696Z,4.03
2019-03-04T10:58:22.419Z,2.20
2019-03-04T11:00:59.836Z,4.23
2019-03-04T11:03:29.069Z,1.57
2019-03-04T11:05:58.040Z,4.00
2019-03-04T11:08:31.233Z,3.63
2019-03-04T11:11:00.185Z,3.03
2019-03-04T11:13:31.965Z,1.77
2019-03-04T11:16:00.478Z,2.20
2019-03-04T11:21:06.066Z,2.07
2019-03-04T11:23:36.248Z,1.73
2019-03-04T11:26:20.000Z,2.23
2019-03-04T11:28:49.245Z,1.97
2019-03-04T11:31:26.966Z,4.17
2019-03-04T11:34:02.239Z,2.13
2019-03-04T11:39:49.585Z,6.97
2019-03-04T11:42:50.727Z,2.43
2019-03-04T11:45:21.441Z,2.83
2019-03-04T11:47:55.581Z,4.13
2019-03-04T11:50:28.370Z,5.00
2019-03-04T11:52:57.799Z,4.33
2019-03-04T11:55:27.517Z,3.60
2019-03-04T11:57:56.461Z,3.83
2019-03-04T12:01:08.394Z,3.27
2019-03-04T12:03:56.570Z,3.40
2019-03-04T12:06:25.410Z,2.00
2019-03-04T12:08:54.494Z,2.30
2019-03-04T12:11:23.578Z,1.00
2019-03-04T12:13:52.949Z,0.67
2019-03-04T12:16:21.881Z,0.67
2019-03-04T12:18:50.653Z,0.73
2019-03-04T12:21:19.536Z,2.33
2019-03-04T12:23:48.587Z,3.53
2019-03-04T12:26:18.836Z,1.73
2019-03-04T12:28:50.662Z,1.90
2019-03-04T12:31:43.400Z,2.63
2019-03-04T12:34:24.834Z,0.70
2019-03-04T12:36:52.734Z,1.93
2019-03-04T12:39:21.993Z,0.60
2019-03-04T12:41:50.842Z,3.20
2019-03-04T12:44:20.335Z,1.53
2019-03-04T12:46:49.544Z,1.30
2019-03-04T12:49:18.330Z,1.07
2019-03-04T12:51:47.161Z,0.77
2019-03-04T12:54:16.182Z,0.50
2019-03-04T12:56:45.134Z,0.70
2019-03-04T12:59:14.437Z,0.97
2019-03-04T13:01:43.387Z,1.30
2019-03-04T13:04:12.623Z,2.40
2019-03-04T13:06:41.529Z,0.80
2019-03-04T13:09:14.570Z,1.33
2019-03-04T13:11:41.033Z,2.27
2019-03-04T13:14:09.945Z,0.70
2019-03-04T13:16:38.806Z,1.10
2019-03-04T13:19:07.615Z,1.53
2019-03-04T13:21:36.551Z,1.10
2019-03-04T13:24:05.856Z,1.07
2019-03-04T13:26:34.823Z,1.60
2019-03-04T13:29:05.036Z,1.57
2019-03-04T13:31:33.887Z,0.87
2019-03-04T13:34:03.319Z,1.10
2019-03-04T13:36:32.237Z,0.93
2019-03-04T13:39:01.284Z,0.93
2019-03-04T13:41:30.232Z,2.47
2019-03-04T13:43:59.344Z,0.80
2019-03-04T13:46:28.456Z,1.57
2019-03-04T13:48:57.352Z,0.70
2019-03-04T13:51:26.534Z,1.20
2019-03-04T13:53:55.517Z,1.83
2019-03-04T13:56:24.286Z,2.97
2019-03-04T13:58:53.306Z,2.33
2019-03-04T14:01:24.443Z,2.50
2019-03-04T14:03:52.954Z,1.60
2019-03-04T14:06:21.868Z,1.50
2019-03-04T14:08:51.017Z,2.10
2019-03-04T14:11:20.252Z,2.80
2019-03-04T14:13:51.156Z,1.13
2019-03-04T14:16:20.323Z,1.80
2019-03-04T14:18:49.416Z,3.13
2019-03-04T14:21:18.379Z,1.77
2019-03-04T14:23:47.733Z,1.33
2019-03-04T14:26:16.683Z,1.50
2019-03-04T14:28:46.850Z,1.63
2019-03-04T14:31:18.334Z,4.63
2019-03-04T14:33:52.708Z,3.83
2019-03-04T14:36:21.669Z,3.13
2019-03-04T14:38:50.492Z,1.97
2019-03-04T14:41:19.291Z,1.67
2019-03-04T14:43:48.204Z,2.53
2019-03-04T14:46:26.732Z,2.63
2019-03-04T14:48:55.550Z,2.17
2019-03-04T14:51:24.438Z,2.60
2019-03-04T14:53:53.254Z,2.97
2019-03-04T14:56:22.867Z,2.57
2019-03-04T14:59:09.870Z,3.63
2019-03-04T15:01:22.784Z,3.87
2019-03-04T15:03:52.170Z,3.67
2019-03-04T15:06:21.199Z,4.00
2019-03-04T15:08:50.792Z,2.83
2019-03-04T15:11:19.626Z,4.53
2019-03-04T15:13:48.406Z,2.63
2019-03-04T15:16:18.902Z,3.03
2019-03-04T15:18:47.748Z,5.43
2019-03-04T15:21:16.805Z,2.40
2019-03-04T15:23:45.671Z,3.77
2019-03-04T15:26:17.030Z,3.07
2019-03-04T15:28:46.001Z,2.80
2019-03-04T15:31:15.764Z,3.00
2019-03-04T15:33:46.713Z,4.00
2019-03-04T15:36:15.636Z,3.63
2019-03-04T15:38:44.645Z,3.93
2019-03-04T15:41:13.457Z,3.20
2019-03-04T15:47:09.876Z,4.67
2019-03-04T15:49:39.049Z,4.37
2019-03-04T15:52:08.047Z,2.43
2019-03-04T15:54:37.077Z,2.00
2019-03-04T15:57:06.676Z,3.20
2019-03-04T15:59:35.754Z,4.87
2019-03-04T16:02:09.714Z,2.63
2019-03-04T16:04:38.669Z,1.33
2019-03-04T16:07:09.332Z,3.00
2019-03-04T16:09:38.600Z,5.40
2019-03-04T16:12:08.404Z,2.90
2019-03-04T16:14:38.280Z,4.40
2019-03-04T16:17:08.467Z,5.20
2019-03-04T16:19:37.873Z,4.23
2019-03-04T16:22:06.825Z,5.50
2019-03-04T16:24:36.269Z,3.77
2019-03-04T16:27:10.434Z,5.70
2019-03-04T16:29:39.363Z,3.80
2019-03-04T16:32:08.842Z,5.60
2019-03-04T16:34:43.923Z,1.60
2019-03-04T16:37:13.356Z,5.53
2019-03-04T16:46:41.459Z,4.73
2019-03-04T16:49:28.571Z,5.57
2019-03-04T16:51:58.063Z,4.13
2019-03-04T16:54:26.877Z,5.53
2019-03-04T16:56:56.061Z,5.30
2019-03-04T16:59:37.432Z,2.63
2019-03-04T17:02:06.442Z,2.00
2019-03-04T17:04:35.632Z,3.17
2019-03-04T17:07:07.318Z,3.77
2019-03-04T17:09:38.672Z,4.30
2019-03-04T17:12:10.588Z,5.40
2019-03-04T17:14:39.475Z,6.10
2019-03-04T17:17:15.880Z,6.53
2019-03-04T17:23:18.904Z,4.23
2019-03-04T17:29:27.610Z,4.93
2019-03-04T17:31:56.594Z,5.47
2019-03-04T17:34:25.497Z,6.93
2019-03-04T17:36:54.599Z,6.93
2019-03-04T17:39:24.686Z,5.10
2019-03-04T17:41:54.723Z,5.23
2019-03-04T17:47:59.818Z,11.63
2019-03-04T17:50:33.642Z,11.57
2019-03-04T17:53:04.596Z,5.40
2019-03-04T17:55:33.477Z,7.60
2019-03-04T17:58:02.548Z,5.67
2019-03-04T18:01:01.995Z,11.10
2019-03-04T18:03:31.633Z,5.90
2019-03-04T18:06:01.076Z,13.93
2019-03-04T18:08:30.380Z,8.23
2019-03-04T18:10:59.557Z,21.00
2019-03-04T18:13:28.364Z,10.20
2019-03-04T18:15:59.315Z,13.57
2019-03-04T18:18:31.611Z,12.70
2019-03-04T18:21:00.475Z,8.17
2019-03-04T18:23:29.375Z,12.77
2019-03-04T18:26:17.953Z,7.63
2019-03-04T18:29:17.195Z,10.10
2019-03-04T18:36:13.048Z,13.63
2019-03-04T18:39:23.780Z,9.73
2019-03-04T18:42:10.217Z,14.37
2019-03-04T18:45:07.558Z,9.23
2019-03-04T18:57:39.389Z,11.60
2019-03-04T19:00:14.528Z,10.63
2019-03-04T19:02:43.750Z,9.20
2019-03-04T19:05:21.148Z,5.50
2019-03-04T19:07:50.389Z,10.77
2019-03-04T19:10:19.405Z,9.50
2019-03-04T19:12:48.361Z,10.33
2019-03-04T19:15:17.363Z,10.33
2019-03-04T19:17:46.271Z,10.60
2019-03-04T19:20:15.459Z,10.07
2019-03-04T19:22:44.836Z,8.90
2019-03-04T19:25:14.849Z,19.33
2019-03-04T19:27:43.805Z,7.73
2019-03-04T19:30:12.960Z,10.57
2019-03-04T19:32:42.035Z,10.43
2019-03-04T19:35:11.074Z,12.90
2019-03-04T19:37:40.451Z,11.13
2019-03-04T19:40:09.813Z,8.67
2019-03-04T19:42:38.990Z,13.30
2019-03-04T19:45:10.464Z,12.90
2019-03-04T19:47:39.505Z,9.97
2019-03-04T19:50:09.224Z,9.70
2019-03-04T19:52:38.193Z,13.63
2019-03-04T19:55:08.625Z,8.60
2019-03-04T19:57:38.027Z,9.43
2019-03-04T20:00:09.480Z,14.07
2019-03-04T20:02:38.577Z,12.00
2019-03-04T20:05:07.628Z,9.23
2019-03-04T20:07:36.649Z,9.70
2019-03-04T20:10:06.460Z,8.17
2019-03-04T20:12:35.542Z,6.93
2019-03-04T20:15:05.353Z,6.10
2019-03-04T20:17:34.346Z,3.87
2019-03-04T20:20:03.760Z,7.13
2019-03-04T20:22:32.719Z,15.53
2019-03-04T20:25:38.695Z,12.57
2019-03-04T20:28:09.186Z,9.03
2019-03-04T20:36:59.321Z,9.07
2019-03-04T20:46:24.013Z,8.60
2019-03-04T20:48:53.016Z,9.77
2019-03-04T20:51:22.046Z,9.00
2019-03-04T20:53:51.145Z,6.90
2019-03-04T20:56:20.052Z,5.37
2019-03-04T20:58:49.663Z,9.70
2019-03-04T21:05:46.422Z,8.93
2019-03-04T21:15:27.809Z,7.10
2019-03-04T21:17:57.811Z,5.60
2019-03-04T21:20:26.788Z,4.27
2019-03-04T21:22:55.818Z,4.57
2019-03-04T21:25:47.262Z,9.37
2019-03-04T21:28:20.408Z,7.93
2019-03-04T21:35:27.321Z,6.70
2019-03-04T21:37:56.478Z,6.80
2019-03-04T21:40:44.286Z,6.30
2019-03-04T21:43:18.312Z,3.00
2019-03-04T21:46:26.137Z,5.27
2019-03-04T21:48:59.343Z,8.47
2019-03-04T21:52:19.842Z,5.67
2019-03-04T21:54:44.623Z,3.60
2019-03-04T21:57:23.508Z,5.53
2019-03-04T21:59:52.556Z,11.87
2019-03-04T22:02:39.424Z,8.87
2019-03-04T22:05:13.168Z,6.47
2019-03-04T22:07:42.556Z,5.10
2019-03-04T22:10:15.241Z,1.97
2019-03-04T22:12:45.664Z,7.00
2019-03-04T22:15:15.946Z,5.83
2019-03-04T22:17:46.068Z,4.57
2019-03-04T22:20:16.085Z,4.43
2019-03-04T22:22:45.492Z,4.57
2019-03-04T22:25:16.006Z,8.30
2019-03-04T22:27:45.405Z,7.73
2019-03-04T22:30:16.105Z,8.63
2019-03-04T22:32:47.016Z,10.63
2019-03-04T22:35:18.804Z,6.47
2019-03-04T22:37:47.953Z,6.87
2019-03-04T22:40:18.240Z,10.27
2019-03-04T22:42:47.315Z,11.20
2019-03-04T22:45:17.663Z,6.23
2019-03-04T22:47:47.394Z,6.77
2019-03-04T22:50:16.940Z,8.27
2019-03-04T22:52:45.963Z,6.33
2019-03-04T22:55:26.746Z,9.27
2019-03-04T22:57:55.938Z,9.17
2019-03-04T23:01:44.596Z,8.03
2019-03-04T23:04:18.881Z,4.77
2019-03-04T23:06:54.687Z,13.70
2019-03-04T23:09:26.629Z,10.07
2019-03-04T23:12:01.406Z,10.07
2019-03-04T23:14:30.563Z,8.70
2019-03-04T23:17:00.946Z,9.83
2019-03-04T23:19:32.271Z,9.67
2019-03-04T23:22:01.091Z,7.33
2019-03-04T23:24:29.916Z,10.83
2019-03-04T23:26:58.794Z,8.97
2019-03-04T23:29:27.769Z,11.63
2019-03-04T23:31:56.622Z,7.83
2019-03-04T23:34:25.931Z,8.93
2019-03-04T23:36:54.823Z,8.93
2019-03-04T23:39:23.727Z,9.40
2019-03-04T23:41:52.628Z,7.13
2019-03-04T23:44:21.771Z,11.00
2019-03-04T23:46:50.949Z,11.47
2019-03-04T23:49:20.163Z,13.40
2019-03-04T23:52:00.373Z,11.07
2019-03-04T23:54:20.785Z,12.53
2019-03-04T23:56:49.827Z,10.07
2019-03-04T23:59:18.839Z,13.23
